Thursday, March 30, 2017, 2:24 PM EDT

KTHV, York Airport

Location: Spring Grove, PA, United States Lat: 39.917
Local Time: 2:24 PM EDT (18:24 GMT) Lon: -76.883
Time Zone: US/Eastern Elev: 478 ft

Show me the last for .
Show Decoded

2017-03-30 13:53 METAR KTHV 301753Z AUTO 13005KT 10SM OVC050 07/M02 A3018 RMK AO2 SLP225
                 T00721017 10072 20039 58019 =
2017-03-30 12:53 METAR KTHV 301653Z AUTO 13008KT 10SM OVC050 07/M02 A3020 RMK AO2 SLP230
                 T00671017 =
2017-03-30 11:53 METAR KTHV 301553Z AUTO 14007KT 10SM OVC060 06/M02 A3022 RMK AO2 SLP239
                 T00611017 =
2017-03-30 10:53 METAR KTHV 301453Z AUTO 15005KT 10SM OVC065 06/M02 A3024 RMK AO2 SLP243
                 T00611022 58010 =
2017-03-30 09:53 METAR KTHV 301353Z AUTO 13005KT 10SM OVC065 06/M02 A3025 RMK AO2 SLP249
                 T00561022 =
2017-03-30 08:53 METAR KTHV 301253Z AUTO 11005KT 10SM BKN070 BKN110 04/M02 A3025 RMK AO2 SLP249
                 T00441022 =
2017-03-30 07:53 METAR KTHV 301153Z AUTO 00000KT 10SM CLR 04/M02 A3027 RMK AO2 SLP254 T00391017
                 10056 21006 51011 =
2017-03-30 06:53 METAR KTHV 301053Z AUTO 06004KT 10SM CLR 03/M03 A3026 RMK AO2 SLP251 T00281028 =
2017-03-30 05:53 METAR KTHV 300953Z AUTO 03003KT 10SM CLR 00/M02 A3025 RMK AO2 SLP248 T00001017 =
2017-03-30 04:53 METAR KTHV 300853Z AUTO 00000KT 10SM CLR 01/M02 A3023 RMK AO2 SLP243 T00061017
                 52010 =
2017-03-30 03:53 METAR KTHV 300753Z AUTO 36003KT 10SM CLR 04/M02 A3022 RMK AO2 SLP239 T00391022 =
2017-03-30 02:53 METAR KTHV 300653Z AUTO 00000KT 10SM CLR 01/M02 A3021 RMK AO2 SLP236 T00061017 =
2017-03-30 01:53 METAR KTHV 300553Z AUTO 08004KT 10SM CLR 05/M02 A3020 RMK AO2 SLP232 T00501022
                 10106 20050 55001 =
2017-03-30 00:53 METAR KTHV 300453Z AUTO 07008KT 10SM CLR 06/M02 A3020 RMK AO2 SLP230 T00611017
                 401500061 =
2017-03-29 23:53 METAR KTHV 300353Z AUTO 04004KT 10SM CLR 07/M01 A3020 RMK AO2 SLP231 T00671011 =
2017-03-29 22:53 METAR KTHV 300253Z AUTO 05004KT 10SM CLR 08/M01 A3021 RMK AO2 SLP233 T00781011
                 51013 =
2017-03-29 21:53 METAR KTHV 300153Z AUTO 02004KT 10SM CLR 09/M01 A3020 RMK AO2 SLP230 T00891011 =
2017-03-29 20:53 METAR KTHV 300053Z AUTO 01004KT 10SM CLR 09/M01 A3018 RMK AO2 SLP224 T00941006 =
2017-03-29 19:53 METAR KTHV 292353Z AUTO 04006KT 10SM CLR 11/00 A3017 RMK AO2 SLP220 T01060000
                 10150 20106 53016 =
2017-03-29 18:53 METAR KTHV 292253Z AUTO 01007KT 10SM CLR 12/00 A3015 RMK AO2 SLP212 T01220000 =
2017-03-29 17:53 METAR KTHV 292153Z AUTO 02011G15KT 10SM CLR 14/01 A3013 RMK AO2 SLP207 T01390006
                 =
2017-03-29 16:53 METAR KTHV 292053Z AUTO 01009G19KT 320V040 10SM CLR 14/01 A3012 RMK AO2 SLP202
                 T01440011 55005 =
2017-03-29 15:53 METAR KTHV 291953Z AUTO 05011G17KT 10SM CLR 15/02 A3011 RMK AO2 SLP199 T01500017
                 =
2017-03-29 14:53 METAR KTHV 291853Z AUTO 35010KT 10SM CLR 14/02 A3012 RMK AO2 SLP203 T01440017 =

Support USWX by starting your Amazon purchase here.